createdAt,value
2024-05-09T00:00:36.365Z,53.00
2024-05-09T00:03:07.922Z,52.97
2024-05-09T00:05:35.814Z,52.95
2024-05-09T00:08:02.904Z,53.01
2024-05-09T00:10:36.014Z,53.30
2024-05-09T00:13:05.900Z,53.07
2024-05-09T00:15:33.603Z,53.17
2024-05-09T00:18:00.956Z,52.83
2024-05-09T00:20:33.526Z,53.02
2024-05-09T00:23:07.259Z,53.05
2024-05-09T00:25:34.736Z,52.90
2024-05-09T00:28:01.623Z,52.87
2024-05-09T00:30:34.290Z,52.88
2024-05-09T00:33:04.561Z,52.83
2024-05-09T00:35:32.172Z,52.93
2024-05-09T00:37:59.235Z,53.05
2024-05-09T00:40:35.553Z,53.12
2024-05-09T00:43:06.774Z,53.31
2024-05-09T00:45:36.459Z,53.10
2024-05-09T00:48:07.456Z,52.99
2024-05-09T00:50:38.841Z,53.23
2024-05-09T00:53:08.127Z,53.61
2024-05-09T00:55:36.175Z,53.37
2024-05-09T00:58:04.744Z,53.40
2024-05-09T01:00:38.442Z,53.26
2024-05-09T01:03:08.272Z,53.11
2024-05-09T01:05:35.786Z,53.14
2024-05-09T01:08:03.172Z,53.29
2024-05-09T01:10:34.620Z,53.40
2024-05-09T01:13:07.252Z,53.46
2024-05-09T01:15:35.157Z,53.63
2024-05-09T01:18:11.304Z,53.60
2024-05-09T01:20:42.537Z,53.18
2024-05-09T01:23:12.564Z,53.19
2024-05-09T01:25:40.382Z,53.38
2024-05-09T01:28:07.458Z,53.80
2024-05-09T01:30:36.899Z,53.56
2024-05-09T01:33:07.235Z,53.76
2024-05-09T01:35:35.970Z,53.40
2024-05-09T01:38:02.867Z,53.61
2024-05-09T01:40:37.125Z,53.57
2024-05-09T01:43:10.964Z,53.67
2024-05-09T01:45:39.263Z,53.87
2024-05-09T01:48:06.955Z,53.63
2024-05-09T01:50:38.681Z,53.81
2024-05-09T01:53:13.394Z,53.56
2024-05-09T01:55:40.736Z,53.82
2024-05-09T01:58:08.743Z,53.95
2024-05-09T02:00:40.240Z,53.74
2024-05-09T02:03:16.230Z,54.01
2024-05-09T02:05:46.388Z,54.01
2024-05-09T02:08:15.885Z,54.09
2024-05-09T02:10:47.574Z,53.78
2024-05-09T02:13:15.684Z,54.00
2024-05-09T02:15:42.813Z,53.98
2024-05-09T02:18:10.416Z,53.91
2024-05-09T02:20:41.757Z,54.24
2024-05-09T02:23:09.286Z,54.38
2024-05-09T02:25:36.152Z,54.20
2024-05-09T02:28:02.927Z,54.19
2024-05-09T02:30:38.123Z,53.91
2024-05-09T02:33:09.698Z,54.07
2024-05-09T02:35:38.003Z,53.88
2024-05-09T02:38:05.118Z,53.88
2024-05-09T02:40:37.088Z,54.05
2024-05-09T02:43:06.330Z,53.72
2024-05-09T02:45:33.515Z,54.10
2024-05-09T02:48:01.560Z,54.00
2024-05-09T02:50:34.349Z,54.15
2024-05-09T02:53:05.939Z,54.26
2024-05-09T02:55:32.975Z,54.33
2024-05-09T02:57:59.860Z,54.12
2024-05-09T03:00:34.916Z,54.20
2024-05-09T03:03:11.018Z,54.40
2024-05-09T03:05:40.152Z,54.41
2024-05-09T03:08:07.676Z,54.28
2024-05-09T03:10:36.407Z,54.30
2024-05-09T03:13:09.237Z,54.47
2024-05-09T03:15:36.131Z,54.45
2024-05-09T03:18:03.695Z,54.58
2024-05-09T03:20:34.543Z,54.41
2024-05-09T03:23:04.214Z,54.44
2024-05-09T03:25:31.255Z,54.55
2024-05-09T03:27:58.058Z,54.30
2024-05-09T03:30:36.750Z,54.78
2024-05-09T03:33:17.703Z,54.76
2024-05-09T03:35:46.423Z,54.61
2024-05-09T03:38:13.531Z,54.84
2024-05-09T03:40:48.187Z,54.84
2024-05-09T03:43:15.783Z,55.12
2024-05-09T03:45:43.375Z,54.85
2024-05-09T03:48:10.651Z,54.96
2024-05-09T03:50:38.069Z,54.69
2024-05-09T03:53:05.575Z,54.67
2024-05-09T03:55:32.607Z,54.89
2024-05-09T03:57:59.648Z,55.12
2024-05-09T04:00:35.001Z,54.73
2024-05-09T04:03:07.743Z,54.93
2024-05-09T04:05:38.025Z,54.56
2024-05-09T04:08:05.643Z,55.25
2024-05-09T04:10:34.247Z,55.32
2024-05-09T04:13:03.132Z,55.15
2024-05-09T04:15:30.280Z,55.79
2024-05-09T04:17:57.190Z,55.35
2024-05-09T04:20:33.645Z,55.17
2024-05-09T04:23:14.862Z,55.09
2024-05-09T04:25:43.466Z,54.90
2024-05-09T04:28:10.348Z,55.11
2024-05-09T04:30:40.028Z,55.16
2024-05-09T04:33:11.820Z,55.35
2024-05-09T04:35:42.603Z,55.44
2024-05-09T04:38:10.188Z,55.25
2024-05-09T04:40:37.797Z,55.19
2024-05-09T04:43:06.385Z,55.12
2024-05-09T04:45:33.457Z,55.23
2024-05-09T04:48:00.646Z,55.48
2024-05-09T04:50:36.412Z,55.21
2024-05-09T04:53:07.812Z,54.85
2024-05-09T04:55:36.314Z,55.15
2024-05-09T04:58:03.064Z,55.44
2024-05-09T05:00:35.936Z,55.29
2024-05-09T05:03:10.863Z,55.10
2024-05-09T05:05:41.228Z,55.43
2024-05-09T05:08:26.531Z,55.14
2024-05-09T05:10:53.397Z,54.99
2024-05-09T05:13:21.596Z,55.17
2024-05-09T05:15:51.084Z,55.48
2024-05-09T05:18:18.542Z,55.46
2024-05-09T05:20:45.820Z,55.60
2024-05-09T05:23:18.411Z,55.63
2024-05-09T05:25:47.968Z,55.39
2024-05-09T05:28:16.572Z,55.41
2024-05-09T05:30:43.566Z,55.50
2024-05-09T05:33:11.806Z,55.38
2024-05-09T05:35:39.210Z,55.22
2024-05-09T05:38:09.896Z,55.68
2024-05-09T05:40:38.660Z,55.49
2024-05-09T05:43:08.608Z,55.55
2024-05-09T05:45:35.606Z,55.33
2024-05-09T05:48:06.453Z,55.48
2024-05-09T05:50:36.826Z,55.19
2024-05-09T05:53:07.398Z,55.59
2024-05-09T05:55:34.961Z,55.27
2024-05-09T05:58:02.590Z,55.47
2024-05-09T06:00:35.524Z,55.54
2024-05-09T06:03:06.118Z,55.29
2024-05-09T06:05:33.153Z,55.69
2024-05-09T06:08:00.141Z,55.55
2024-05-09T06:10:36.967Z,55.26
2024-05-09T06:13:06.518Z,55.44
2024-05-09T06:15:33.278Z,55.44
2024-05-09T06:18:00.245Z,55.53
2024-05-09T06:20:34.956Z,55.33
2024-05-09T06:23:04.897Z,55.27
2024-05-09T06:25:31.884Z,55.41
2024-05-09T06:28:00.521Z,55.18
2024-05-09T06:30:36.582Z,55.36
2024-05-09T06:33:10.199Z,55.20
2024-05-09T06:35:38.517Z,55.17
2024-05-09T06:38:09.027Z,55.12
2024-05-09T06:40:38.969Z,55.19
2024-05-09T06:43:19.000Z,55.07
2024-05-09T06:45:52.874Z,55.28
2024-05-09T06:48:20.747Z,54.89
2024-05-09T06:50:48.218Z,54.98
2024-05-09T06:53:16.061Z,54.83
2024-05-09T06:55:42.880Z,54.84
2024-05-09T06:58:09.803Z,54.94
2024-05-09T07:00:39.840Z,54.76
2024-05-09T07:03:19.066Z,54.68
2024-05-09T07:05:48.167Z,54.29
2024-05-09T07:08:16.234Z,54.79
2024-05-09T07:10:43.912Z,54.63
2024-05-09T07:13:15.338Z,54.94
2024-05-09T07:15:42.883Z,54.71
2024-05-09T07:18:16.660Z,54.67
2024-05-09T07:20:45.532Z,54.50
2024-05-09T07:23:12.848Z,54.53
2024-05-09T07:25:40.978Z,54.78
2024-05-09T07:28:13.763Z,54.57
2024-05-09T07:30:40.649Z,54.71
2024-05-09T07:33:07.544Z,54.56
2024-05-09T07:35:34.700Z,54.42
2024-05-09T07:38:01.578Z,54.28
2024-05-09T07:40:34.917Z,54.14
2024-05-09T07:43:04.508Z,54.34
2024-05-09T07:45:48.008Z,54.35
2024-05-09T07:52:38.302Z,53.87
2024-05-09T07:53:46.402Z,53.78
2024-05-09T07:56:16.844Z,53.73
2024-05-09T07:58:44.385Z,53.71
2024-05-09T08:01:11.363Z,53.49
2024-05-09T08:03:38.555Z,53.88
2024-05-09T08:06:05.555Z,53.69
2024-05-09T08:08:32.303Z,53.91
2024-05-09T08:10:59.130Z,53.97
2024-05-09T08:13:25.811Z,53.86
2024-05-09T08:15:52.945Z,53.55
2024-05-09T08:18:19.881Z,53.61
2024-05-09T08:20:48.883Z,53.39
2024-05-09T08:23:15.734Z,53.07
2024-05-09T08:25:42.454Z,53.45
2024-05-09T08:28:09.405Z,53.34
2024-05-09T08:30:37.928Z,54.29
2024-05-09T08:33:06.855Z,55.76
2024-05-09T08:35:34.879Z,55.22
2024-05-09T08:38:06.308Z,53.83
2024-05-09T08:40:36.120Z,53.72
2024-05-09T08:43:09.840Z,54.03
2024-05-09T08:45:42.626Z,53.67
2024-05-09T08:48:13.327Z,53.61
2024-05-09T08:50:41.451Z,53.88
2024-05-09T08:53:08.860Z,53.42
2024-05-09T08:55:40.347Z,53.69
2024-05-09T08:58:12.618Z,53.65
2024-05-09T09:00:42.332Z,53.12
2024-05-09T09:03:10.170Z,53.24
2024-05-09T09:05:39.888Z,53.27
2024-05-09T09:08:08.743Z,53.06
2024-05-09T09:10:35.936Z,52.91
2024-05-09T09:13:11.672Z,52.90
2024-05-09T09:15:50.928Z,52.71
2024-05-09T09:18:18.459Z,53.35
2024-05-09T09:20:45.614Z,53.27
2024-05-09T09:23:12.453Z,53.28
2024-05-09T09:25:40.524Z,53.22
2024-05-09T09:28:07.638Z,52.91
2024-05-09T09:30:37.643Z,53.07
2024-05-09T09:33:14.225Z,52.79
2024-05-09T09:35:41.173Z,52.84
2024-05-09T09:38:10.368Z,52.73
2024-05-09T09:40:45.773Z,52.44
2024-05-09T09:43:20.048Z,52.45
2024-05-09T09:45:50.395Z,52.44
2024-05-09T09:48:17.639Z,52.16
2024-05-09T09:50:45.659Z,52.02
2024-05-09T09:53:14.113Z,52.24
2024-05-09T09:55:42.012Z,51.87
2024-05-09T09:58:13.438Z,51.75
2024-05-09T10:00:41.640Z,51.61
2024-05-09T10:03:08.673Z,51.48
2024-05-09T10:05:36.040Z,51.62
2024-05-09T10:08:08.163Z,51.58
2024-05-09T10:10:35.958Z,51.64
2024-05-09T10:13:07.321Z,51.69
2024-05-09T10:15:45.818Z,51.48
2024-05-09T10:18:13.096Z,51.16
2024-05-09T10:20:44.063Z,50.92
2024-05-09T10:23:30.384Z,50.44
2024-05-09T10:25:57.591Z,50.55
2024-05-09T10:28:35.278Z,50.83
2024-05-09T10:31:12.154Z,50.50
2024-05-09T10:33:50.378Z,50.90
2024-05-09T10:36:23.534Z,50.44
2024-05-09T10:38:51.338Z,50.47
2024-05-09T10:41:18.978Z,50.63
2024-05-09T10:43:46.511Z,50.49
2024-05-09T10:46:14.665Z,50.68
2024-05-09T10:48:44.982Z,50.47
2024-05-09T10:51:13.278Z,50.63
2024-05-09T10:53:42.300Z,50.45
2024-05-09T10:56:09.671Z,50.65
2024-05-09T10:58:36.710Z,50.43
2024-05-09T11:01:06.740Z,50.55
2024-05-09T11:03:34.876Z,50.64
2024-05-09T11:06:01.886Z,50.52
2024-05-09T11:08:30.181Z,50.65
2024-05-09T11:10:57.164Z,50.22
2024-05-09T11:13:31.650Z,50.29
2024-05-09T11:16:02.729Z,49.98
2024-05-09T11:18:35.194Z,50.08
2024-05-09T11:21:13.519Z,50.16
2024-05-09T11:23:40.677Z,49.74
2024-05-09T11:26:07.537Z,49.52
2024-05-09T11:28:34.276Z,49.92
2024-05-09T11:31:09.770Z,49.81
2024-05-09T11:33:43.400Z,49.92
2024-05-09T11:36:10.644Z,49.53
2024-05-09T11:38:37.582Z,49.61
2024-05-09T11:41:05.537Z,49.68
2024-05-09T11:43:33.141Z,49.60
2024-05-09T11:46:00.625Z,49.78
2024-05-09T11:48:27.917Z,49.73
2024-05-09T11:50:55.536Z,49.61
2024-05-09T11:53:22.518Z,49.40
2024-05-09T11:55:49.390Z,49.93
2024-05-09T11:58:18.176Z,49.61
2024-05-09T12:00:46.380Z,49.76
2024-05-09T12:03:14.864Z,49.82
2024-05-09T12:05:42.014Z,49.70
2024-05-09T12:08:09.044Z,49.83
2024-05-09T12:10:36.894Z,49.67
2024-05-09T12:13:06.216Z,49.55
2024-05-09T12:15:37.744Z,49.68
2024-05-09T12:18:05.928Z,49.60
2024-05-09T12:20:37.547Z,49.69
2024-05-09T12:23:08.029Z,49.47
2024-05-09T12:25:36.488Z,49.21
2024-05-09T12:28:03.513Z,49.25
2024-05-09T12:30:36.655Z,49.25
2024-05-09T12:33:08.453Z,49.48
2024-05-09T12:35:35.631Z,48.84
2024-05-09T12:38:02.642Z,49.00
2024-05-09T12:40:36.383Z,49.02
2024-05-09T12:43:07.474Z,49.14
2024-05-09T12:45:35.209Z,49.09
2024-05-09T12:48:02.172Z,48.93
2024-05-09T12:50:32.929Z,48.83
2024-05-09T12:53:02.041Z,48.65
2024-05-09T12:55:34.013Z,48.72
2024-05-09T12:58:08.320Z,48.69
2024-05-09T13:00:35.595Z,48.87
2024-05-09T13:03:02.861Z,48.65
2024-05-09T13:05:29.968Z,48.56
2024-05-09T13:07:57.336Z,48.59
2024-05-09T13:10:31.785Z,48.35
2024-05-09T13:13:01.023Z,48.32
2024-05-09T13:15:28.624Z,48.41
2024-05-09T13:17:58.321Z,48.45
2024-05-09T13:20:32.790Z,48.51
2024-05-09T13:23:02.886Z,48.19
2024-05-09T13:25:29.637Z,48.27
2024-05-09T13:27:57.187Z,48.28
2024-05-09T13:30:33.944Z,48.23
2024-05-09T13:33:06.635Z,48.29
2024-05-09T13:35:35.432Z,48.21
2024-05-09T13:38:03.166Z,47.93
2024-05-09T13:40:34.297Z,47.83
2024-05-09T13:43:05.804Z,47.63
2024-05-09T13:45:33.638Z,47.68
2024-05-09T13:48:02.005Z,47.83
2024-05-09T13:50:34.529Z,47.36
2024-05-09T13:53:05.964Z,47.69
2024-05-09T13:55:33.946Z,47.77
2024-05-09T13:58:01.468Z,47.63
2024-05-09T14:00:41.736Z,47.64
2024-05-09T14:03:14.459Z,47.63
2024-05-09T14:05:41.642Z,47.69
2024-05-09T14:08:08.798Z,47.61
2024-05-09T14:10:35.913Z,47.29
2024-05-09T14:13:02.823Z,47.49
2024-05-09T14:15:29.686Z,47.45
2024-05-09T14:17:56.498Z,47.69
2024-05-09T14:20:30.440Z,47.46
2024-05-09T14:22:59.613Z,47.38
2024-05-09T14:25:35.078Z,47.45
2024-05-09T14:28:04.098Z,47.25
2024-05-09T14:30:37.272Z,47.33
2024-05-09T14:33:06.661Z,47.46
2024-05-09T14:35:34.391Z,47.14
2024-05-09T14:38:01.457Z,47.35
2024-05-09T14:40:38.816Z,47.39
2024-05-09T14:43:11.107Z,47.35
2024-05-09T14:45:38.001Z,47.13
2024-05-09T14:48:05.710Z,46.90
2024-05-09T14:50:37.040Z,46.92
2024-05-09T14:53:07.353Z,46.64
2024-05-09T14:55:37.453Z,47.03
2024-05-09T14:58:08.773Z,46.37
2024-05-09T15:00:45.771Z,46.67
2024-05-09T15:03:17.017Z,46.77
2024-05-09T15:05:44.998Z,46.60
2024-05-09T15:08:11.838Z,46.28
2024-05-09T15:10:39.181Z,46.65
2024-05-09T15:13:08.069Z,46.57
2024-05-09T15:15:36.767Z,46.67
2024-05-09T15:18:04.994Z,46.56
2024-05-09T15:20:35.892Z,46.58
2024-05-09T15:23:05.349Z,46.84
2024-05-09T15:25:36.746Z,46.97
2024-05-09T15:28:04.929Z,46.84
2024-05-09T15:30:33.670Z,46.83
2024-05-09T15:33:06.332Z,46.96
2024-05-09T15:35:34.291Z,46.93
2024-05-09T15:38:03.189Z,47.47
2024-05-09T15:40:37.682Z,47.08
2024-05-09T15:43:07.840Z,47.30
2024-05-09T15:45:35.312Z,47.10
2024-05-09T15:48:03.009Z,47.33
2024-05-09T15:50:37.082Z,47.13
2024-05-09T15:53:08.245Z,47.23
2024-05-09T15:55:36.049Z,47.38
2024-05-09T15:58:04.160Z,47.26
2024-05-09T16:03:01.360Z,47.53
2024-05-09T16:05:28.420Z,47.60
2024-05-09T16:07:55.391Z,47.31
2024-05-09T16:10:26.013Z,47.39
2024-05-09T16:12:59.338Z,47.96
2024-05-09T16:15:26.124Z,47.64
2024-05-09T16:17:53.066Z,47.87
2024-05-09T16:20:33.189Z,47.88
2024-05-09T16:23:05.199Z,47.86
2024-05-09T16:25:31.914Z,47.81
2024-05-09T16:27:58.879Z,47.89
2024-05-09T16:30:32.122Z,47.74
2024-05-09T16:33:02.902Z,47.80
2024-05-09T16:35:30.060Z,47.88
2024-05-09T16:37:57.263Z,47.90
2024-05-09T16:40:34.112Z,48.09
2024-05-09T16:43:06.293Z,48.07
2024-05-09T16:45:33.557Z,48.10
2024-05-09T16:48:01.471Z,48.22
2024-05-09T16:50:33.139Z,48.29
2024-05-09T16:53:02.428Z,48.50
2024-05-09T16:55:29.313Z,48.41
2024-05-09T16:57:57.473Z,48.33
2024-05-09T17:00:35.237Z,48.39
2024-05-09T17:03:09.203Z,48.39
2024-05-09T17:05:36.730Z,48.46
2024-05-09T17:08:04.152Z,48.66
2024-05-09T17:10:33.811Z,48.68
2024-05-09T17:13:06.833Z,48.70
2024-05-09T17:15:35.469Z,48.84
2024-05-09T17:18:03.331Z,48.92
2024-05-09T17:20:34.485Z,48.96
2024-05-09T17:23:04.933Z,48.79
2024-05-09T17:25:32.567Z,48.97
2024-05-09T17:28:06.398Z,48.98
2024-05-09T17:30:38.804Z,49.06
2024-05-09T17:33:09.101Z,49.06
2024-05-09T17:35:36.992Z,49.14
2024-05-09T17:38:05.498Z,49.19
2024-05-09T17:40:35.846Z,49.05
2024-05-09T17:43:05.403Z,49.06
2024-05-09T17:45:33.084Z,49.09
2024-05-09T17:48:00.793Z,49.02
2024-05-09T17:50:34.909Z,49.21
2024-05-09T17:53:04.031Z,49.12
2024-05-09T17:55:30.863Z,49.38
2024-05-09T17:57:57.904Z,49.34
2024-05-09T18:00:36.237Z,49.41
2024-05-09T18:03:06.785Z,49.54
2024-05-09T18:05:36.017Z,49.40
2024-05-09T18:08:03.735Z,49.45
2024-05-09T18:10:36.452Z,49.44
2024-05-09T18:13:06.897Z,49.67
2024-05-09T18:15:34.369Z,49.69
2024-05-09T18:18:02.401Z,49.61
2024-05-09T18:20:38.054Z,49.44
2024-05-09T18:23:10.905Z,49.62
2024-05-09T18:25:37.756Z,49.58
2024-05-09T18:28:05.667Z,49.99
2024-05-09T18:30:35.473Z,49.76
2024-05-09T18:33:08.221Z,50.04
2024-05-09T18:35:36.522Z,49.96
2024-05-09T18:38:04.969Z,50.23
2024-05-09T18:40:35.695Z,50.20
2024-05-09T18:43:06.905Z,49.97
2024-05-09T18:45:35.688Z,50.33
2024-05-09T18:48:04.784Z,50.42
2024-05-09T18:50:36.059Z,50.32
2024-05-09T18:53:06.514Z,50.37
2024-05-09T18:55:33.321Z,50.33
2024-05-09T18:58:00.369Z,50.30
2024-05-09T19:00:34.329Z,50.17
2024-05-09T19:03:06.218Z,50.12
2024-05-09T19:05:35.642Z,50.43
2024-05-09T19:08:03.358Z,50.43
2024-05-09T19:10:34.333Z,50.79
2024-05-09T19:13:06.545Z,50.68
2024-05-09T19:15:37.298Z,50.85
2024-05-09T19:18:04.616Z,50.70
2024-05-09T19:20:34.565Z,50.84
2024-05-09T19:23:02.899Z,50.70
2024-05-09T19:25:29.759Z,51.06
2024-05-09T19:27:56.616Z,51.19
2024-05-09T19:30:30.509Z,51.27
2024-05-09T19:33:05.976Z,51.33
2024-05-09T19:35:33.214Z,51.29
2024-05-09T19:38:00.146Z,51.32
2024-05-09T19:40:31.546Z,51.47
2024-05-09T19:43:04.782Z,51.47
2024-05-09T19:45:33.535Z,51.44
2024-05-09T19:48:01.364Z,51.28
2024-05-09T19:50:36.925Z,51.31
2024-05-09T19:53:09.136Z,51.63
2024-05-09T19:55:35.891Z,51.56
2024-05-09T19:58:07.235Z,51.67
2024-05-09T20:00:37.899Z,51.70
2024-05-09T20:03:07.087Z,51.47
2024-05-09T20:05:34.344Z,51.28
2024-05-09T20:08:01.296Z,51.74
2024-05-09T20:10:32.522Z,51.75
2024-05-09T20:13:01.846Z,51.58
2024-05-09T20:15:28.890Z,51.45
2024-05-09T20:17:55.894Z,51.50
2024-05-09T20:20:32.865Z,51.51
2024-05-09T20:23:07.820Z,51.55
2024-05-09T20:25:34.517Z,51.33
2024-05-09T20:28:01.367Z,51.30
2024-05-09T20:30:32.297Z,51.73
2024-05-09T20:33:02.864Z,51.64
2024-05-09T20:35:32.064Z,51.45
2024-05-09T20:37:59.231Z,51.48
2024-05-09T20:40:31.967Z,51.29
2024-05-09T20:43:02.400Z,51.50
2024-05-09T20:45:29.175Z,51.29
2024-05-09T20:47:56.177Z,51.48
2024-05-09T20:50:31.752Z,51.46
2024-05-09T20:53:05.396Z,51.36
2024-05-09T20:55:32.166Z,51.17
2024-05-09T20:57:58.941Z,51.35
2024-05-09T21:00:34.554Z,51.14
2024-05-09T21:03:06.999Z,51.06
2024-05-09T21:05:34.778Z,50.76
2024-05-09T21:08:01.975Z,51.06
2024-05-09T21:10:32.786Z,51.36
2024-05-09T21:13:02.088Z,51.36
2024-05-09T21:15:29.782Z,50.98
2024-05-09T21:17:56.573Z,51.16
2024-05-09T21:20:29.085Z,51.34
2024-05-09T21:22:58.695Z,51.23
2024-05-09T21:25:25.608Z,51.28
2024-05-09T21:27:52.604Z,51.12
2024-05-09T21:30:31.386Z,51.12
2024-05-09T21:33:06.121Z,50.92
2024-05-09T21:35:32.953Z,51.33
2024-05-09T21:37:59.677Z,51.19
2024-05-09T21:40:33.953Z,51.21
2024-05-09T21:43:03.081Z,51.04
2024-05-09T21:45:30.026Z,51.39
2024-05-09T21:47:56.896Z,51.67
2024-05-09T21:50:31.709Z,51.67
2024-05-09T21:53:05.575Z,51.48
2024-05-09T21:55:32.287Z,51.62
2024-05-09T21:57:59.021Z,51.68
2024-05-09T22:00:33.000Z,51.49
2024-05-09T22:03:04.288Z,51.95
2024-05-09T22:05:31.287Z,51.70
2024-05-09T22:07:58.239Z,51.83
2024-05-09T22:10:30.859Z,51.66
2024-05-09T22:13:01.434Z,51.79
2024-05-09T22:15:28.432Z,51.69
2024-05-09T22:17:57.293Z,51.80
2024-05-09T22:20:32.746Z,51.96
2024-05-09T22:23:03.490Z,51.66
2024-05-09T22:25:31.296Z,51.95
2024-05-09T22:27:59.032Z,51.98
2024-05-09T22:30:34.242Z,52.01
2024-05-09T22:33:05.638Z,51.64
2024-05-09T22:35:32.780Z,52.20
2024-05-09T22:37:59.981Z,52.21
2024-05-09T22:40:38.268Z,52.11
2024-05-09T22:43:13.335Z,52.26
2024-05-09T22:45:40.312Z,52.11
2024-05-09T22:48:08.552Z,52.08
2024-05-09T22:50:35.809Z,51.97
2024-05-09T22:53:02.591Z,52.24
2024-05-09T22:55:29.375Z,52.18
2024-05-09T22:57:56.367Z,52.06
2024-05-09T23:02:52.948Z,52.15
2024-05-09T23:05:19.798Z,51.94
2024-05-09T23:07:46.534Z,52.12
2024-05-09T23:10:20.734Z,51.93
2024-05-09T23:12:51.629Z,52.01
2024-05-09T23:15:18.468Z,52.07
2024-05-09T23:17:45.334Z,52.24
2024-05-09T23:20:14.779Z,52.08
2024-05-09T23:22:41.735Z,52.30
2024-05-09T23:25:08.602Z,52.30
2024-05-09T23:27:35.528Z,52.25
2024-05-09T23:30:02.651Z,52.43
2024-05-09T23:32:30.129Z,52.34
2024-05-09T23:34:56.916Z,52.27
2024-05-09T23:37:23.804Z,52.50
2024-05-09T23:39:50.582Z,52.42
2024-05-09T23:42:17.309Z,52.68
2024-05-09T23:44:44.041Z,52.53
2024-05-09T23:47:11.131Z,52.63
2024-05-09T23:49:38.032Z,52.67
2024-05-09T23:52:05.354Z,52.51
2024-05-09T23:54:32.179Z,52.71
2024-05-09T23:56:58.865Z,52.82
2024-05-09T23:59:25.557Z,52.79
